Página principal
METAR-TAF:

METAR-TAF

Aeroportos :

Aeroporto Internacional de Porto Alegre

Porto Alegre, Rio Grande do Sul, Brasil

latitude: 30-00S, longitude: 051-11W, altura: 3 m

Observação actual do tempo

O boletim foi feito há 47 minutos, às 04:00 UTC
Vento calmo
Temperatura 11°C
Humidade 100%
Pressão 1022 hPa
Visibilidade 10 km ou mais
Nuvens dispersasa uma altura de 3300 ft
Nuvens fragmentadasa uma altura de 5000 ft

METAR: SBPA 230400Z 00000KT 9999 SCT033 BKN050 11/11 Q1022

Hora: 01:47 (04:47 UTC)

Previsão

O boletim foi feito há 6 horas e 17 minutos, às 22:30 UTC
Previsão válida de 23 às 00 UTC a 23 às 24 UTC
Vento 6 kt de oes-noroeste
Visibilidade 10 km ou mais
sem nuvens abaixo de 1500 metros e sem cumulonimbus
Probabilidade 40%
de 23 às 08 UTC a 23 às 12 UTC
Vento kt de norte
Visibilidade: 0500 m
a uma altura de 200 ft
nevoeiro

TAF: SBPA 222230Z 2300/2324 29006KT CAVOK TN06/2309Z TX18/2318Z PROB40 2308/2312 00000KT 0500 FG VV002 RMK PEB

Observações e previsões do tempo de mais de 4000 aeroportos (mensagens METAR e TAF).

As estações disponíveis são os pontos amarelos e vermelhos sobre o mapa.

Mova o rato sobre o mapa para ver o nome da estação.

Depois clique no ponto para visualizar as observações e previsões meteorológicas.

Para alterar o mapa : clique nos botões verdes com uma cruz preta para aumentar o zoom; no botão verde com uma pitada de zoom; ou nas setas verdes para mapas adjacentes.


METAR-TAF: